Time;durP1;ratioP1;P1;durP2;ratioP2;P2;SDS_P1;SDS_P2;PMS_P1;PMS_P2;Temp;Humidity;BMP_temperature;BMP_pressure;BME280_temperature;BME280_humidity;BME280_pressure;Samples;Min_cycle;Max_cycle;Signal;HPM_P1;HPM_P2
2023/06/21 00:02:20;;;;;;;13.40;11.98;;;22.20;70.30;;;;;;5037368;28;20628;-81
2023/06/21 00:04:46;;;;;;;12.60;11.30;;;22.20;70.30;;;;;;5020405;28;20162;-82
2023/06/21 00:07:12;;;;;;;13.88;12.38;;;22.20;70.30;;;;;;5037154;28;20621;-82
2023/06/21 00:09:37;;;;;;;13.93;12.52;;;22.20;70.30;;;;;;5054692;28;20178;-81
2023/06/21 00:12:04;;;;;;;13.82;12.35;;;22.20;70.40;;;;;;5054640;28;20192;-82
2023/06/21 00:14:30;;;;;;;13.70;12.30;;;22.20;70.50;;;;;;5036901;28;20202;-83
2023/06/21 00:16:59;;;;;;;14.07;12.57;;;22.20;70.40;;;;;;5054528;28;20667;-81
2023/06/21 00:19:25;;;;;;;13.40;12.00;;;22.20;70.40;;;;;;5003336;28;20231;-81
2023/06/21 00:21:51;;;;;;;14.20;12.70;;;22.20;70.40;;;;;;5054478;28;20158;-83
2023/06/21 00:24:17;;;;;;;14.35;12.88;;;22.20;70.40;;;;;;5020140;28;20245;-82
2023/06/21 00:26:43;;;;;;;13.68;12.27;;;22.20;70.30;;;;;;5020083;28;20197;-82
2023/06/21 00:29:09;;;;;;;14.20;12.70;;;22.20;70.40;;;;;;5020054;28;20188;-81
2023/06/21 00:31:35;;;;;;;13.43;12.02;;;22.20;70.40;;;;;;5019524;28;20546;-83
2023/06/21 00:34:01;;;;;;;13.93;12.43;;;22.10;70.30;;;;;;5036057;28;20160;-80
2023/06/21 00:36:27;;;;;;;14.25;12.75;;;22.10;70.30;;;;;;5036241;28;20194;-80
2023/06/21 00:38:53;;;;;;;13.80;12.35;;;22.10;70.40;;;;;;5054113;28;20166;-81
2023/06/21 00:41:18;;;;;;;14.52;12.77;;;22.10;70.40;;;;;;5054314;28;20142;-81
2023/06/21 00:43:44;;;;;;;14.23;12.73;;;22.10;70.30;;;;;;5054015;28;20150;-81
2023/06/21 00:46:10;;;;;;;14.38;12.63;;;22.10;70.40;;;;;;5054118;28;20528;-82
2023/06/21 00:48:36;;;;;;;13.73;12.07;;;22.10;70.40;;;;;;5036028;28;20217;-81
2023/06/21 00:51:02;;;;;;;13.65;12.15;;;22.10;70.40;;;;;;5054064;28;20185;-80
2023/06/21 00:53:28;;;;;;;13.85;12.35;;;22.10;70.50;;;;;;5036106;28;20617;-83
2023/06/21 00:55:56;;;;;;;13.70;12.27;;;22.10;70.40;;;;;;5053760;28;20251;-81
2023/06/21 00:58:22;;;;;;;13.88;12.27;;;22.10;70.50;;;;;;5019596;28;20166;-81
2023/06/21 01:00:49;;;;;;;13.50;12.07;;;22.10;70.40;;;;;;5019813;28;20165;-82
2023/06/21 01:03:16;;;;;;;14.52;13.02;;;22.10;70.40;;;;;;5020024;28;20165;-81
2023/06/21 01:05:43;;;;;;;13.57;12.18;;;22.10;70.40;;;;;;5036272;28;20158;-83
2023/06/21 01:08:46;;;;;;;14.75;13.15;;;22.10;70.50;;;;;;5035837;28;20224;-80
2023/06/21 01:11:23;;;;;;;14.63;12.55;;;22.10;70.60;;;;;;5053544;28;20609;-80
2023/06/21 01:14:00;;;;;;;14.38;12.88;;;22.00;70.50;;;;;;5035889;28;20158;-81
2023/06/21 01:16:30;;;;;;;14.15;12.55;;;22.00;70.50;;;;;;5035964;28;20202;-82
2023/06/21 01:18:56;;;;;;;15.30;13.00;;;22.10;70.60;;;;;;5053704;28;20180;-81
2023/06/21 01:21:23;;;;;;;14.00;12.60;;;22.00;70.50;;;;;;5035638;28;20190;-80
2023/06/21 01:24:15;;;;;;;14.57;12.95;;;22.00;70.50;;;;;;5035591;28;20252;-80
2023/06/21 01:26:52;;;;;;;14.63;12.52;;;22.00;70.50;;;;;;5053714;28;20173;-80
2023/06/21 01:29:21;;;;;;;14.20;12.70;;;22.00;70.60;;;;;;5019519;28;20169;-82
2023/06/21 01:31:50;;;;;;;14.23;12.73;;;22.00;70.70;;;;;;5035528;28;20539;-82
2023/06/21 01:34:16;;;;;;;13.63;12.20;;;22.00;70.70;;;;;;5053374;28;20154;-81
2023/06/21 01:36:41;;;;;;;14.98;13.02;;;22.00;70.70;;;;;;5018871;28;20588;-81
2023/06/21 01:39:09;;;;;;;13.68;12.25;;;22.00;70.70;;;;;;5053313;28;20150;-81
2023/06/21 01:41:36;;;;;;;14.40;12.90;;;22.00;70.70;;;;;;5035863;28;20216;-81
2023/06/21 01:44:04;;;;;;;13.95;12.45;;;22.00;70.70;;;;;;5035109;28;20152;-80
2023/06/21 01:46:30;;;;;;;15.13;12.93;;;22.00;70.80;;;;;;5035554;28;20526;-82
2023/06/21 01:48:56;;;;;;;14.25;12.43;;;22.00;70.70;;;;;;5035102;28;20692;-81
2023/06/21 01:51:22;;;;;;;13.77;12.38;;;22.00;70.70;;;;;;5035303;28;20246;-82
2023/06/21 01:53:48;;;;;;;13.55;12.15;;;22.00;70.70;;;;;;5035340;28;20158;-81
2023/06/21 01:56:16;;;;;;;13.82;12.32;;;22.00;70.70;;;;;;5018964;28;20199;-81
2023/06/21 01:58:42;;;;;;;14.93;13.40;;;22.00;70.70;;;;;;5018648;28;20538;-81
2023/06/21 02:01:08;;;;;;;14.18;12.50;;;22.00;70.70;;;;;;5019147;28;20158;-81
2023/06/21 02:03:33;;;;;;;14.02;12.63;;;22.00;70.80;;;;;;5018935;28;20595;-82
2023/06/21 02:06:03;;;;;;;14.05;12.55;;;22.00;70.80;;;;;;5035521;28;20174;-82
2023/06/21 02:08:29;;;;;;;14.55;12.82;;;22.00;70.80;;;;;;5018986;28;20170;-82
2023/06/21 02:10:55;;;;;;;13.52;12.13;;;22.00;70.80;;;;;;5035003;28;20190;-81
2023/06/21 02:13:21;;;;;;;13.38;12.00;;;22.00;70.80;;;;;;5018404;28;20158;-84
2023/06/21 02:15:47;;;;;;;14.05;12.55;;;21.90;70.80;;;;;;5053166;28;20186;-81
2023/06/21 02:18:14;;;;;;;13.77;12.07;;;21.90;70.90;;;;;;5035031;28;20586;-81
2023/06/21 02:20:39;;;;;;;13.45;12.05;;;21.90;70.90;;;;;;5018611;28;20165;-81
2023/06/21 02:23:05;;;;;;;13.93;12.43;;;21.90;70.90;;;;;;5035492;28;20502;-81
2023/06/21 02:25:36;;;;;;;14.73;13.13;;;21.90;70.90;;;;;;5035003;28;20166;-81
2023/06/21 02:28:03;;;;;;;15.25;12.93;;;21.90;70.90;;;;;;5053046;28;20157;-82
2023/06/21 02:30:29;;;;;;;14.50;13.00;;;21.90;70.90;;;;;;5018500;28;20173;-81
2023/06/21 02:32:55;;;;;;;14.40;12.85;;;21.90;70.90;;;;;;5034837;28;20537;-81
2023/06/21 02:35:21;;;;;;;14.55;13.05;;;21.90;70.90;;;;;;5034746;28;20545;-82
2023/06/21 02:37:47;;;;;;;13.80;12.30;;;21.90;70.90;;;;;;5052761;28;20162;-82
2023/06/21 02:40:13;;;;;;;14.02;12.52;;;21.90;70.90;;;;;;5034847;28;20212;-82
2023/06/21 02:42:40;;;;;;;13.98;12.48;;;21.90;70.90;;;;;;5052858;28;20155;-83
2023/06/21 02:45:07;;;;;;;14.00;12.50;;;21.90;71.00;;;;;;5034581;28;20189;-81
2023/06/21 02:47:33;;;;;;;14.00;12.50;;;21.90;70.90;;;;;;5034579;28;20255;-82
2023/06/21 02:49:59;;;;;;;14.90;13.32;;;21.90;71.00;;;;;;5034880;28;20162;-82
2023/06/21 02:52:25;;;;;;;14.00;12.50;;;21.90;71.00;;;;;;5034688;28;20293;-82
2023/06/21 02:54:54;;;;;;;13.52;12.13;;;21.90;71.00;;;;;;5034852;28;20205;-82
2023/06/21 02:57:20;;;;;;;13.30;11.88;;;21.90;70.90;;;;;;5055771;28;20158;-81
2023/06/21 02:59:47;;;;;;;14.15;12.65;;;21.90;71.00;;;;;;5038957;28;20162;-81
2023/06/21 03:02:13;;;;;;;14.32;12.73;;;21.90;71.10;;;;;;5038558;28;20215;-81
2023/06/21 03:04:39;;;;;;;13.88;12.43;;;21.90;71.10;;;;;;5038170;28;20154;-81
2023/06/21 03:07:07;;;;;;;13.30;11.90;;;21.90;71.00;;;;;;5038256;28;20212;-81
2023/06/21 03:09:33;;;;;;;14.40;12.82;;;21.90;71.10;;;;;;5021700;28;20257;-81
2023/06/21 03:12:02;;;;;;;12.77;11.48;;;21.90;71.00;;;;;;5038063;28;20585;-81
2023/06/21 03:14:29;;;;;;;14.02;12.52;;;21.90;71.00;;;;;;5038136;28;20220;-80
2023/06/21 03:16:55;;;;;;;14.90;13.15;;;21.90;70.90;;;;;;5037736;28;20671;-81
2023/06/21 03:19:20;;;;;;;13.75;12.32;;;21.90;70.90;;;;;;5037943;28;20154;-81
2023/06/21 03:21:46;;;;;;;14.13;12.52;;;21.90;71.00;;;;;;5038161;28;20608;-82
2023/06/21 03:24:12;;;;;;;13.77;12.35;;;21.90;71.00;;;;;;5021509;28;20177;-82
2023/06/21 03:26:38;;;;;;;13.82;12.35;;;21.90;70.90;;;;;;5038081;28;20158;-82
2023/06/21 03:29:06;;;;;;;13.98;12.48;;;21.90;70.90;;;;;;5037561;28;20158;-81
2023/06/21 03:31:33;;;;;;;14.20;12.60;;;21.90;71.00;;;;;;5038352;28;20150;-82
2023/06/21 03:33:59;;;;;;;14.23;12.73;;;21.90;71.00;;;;;;5037552;28;20169;-82
2023/06/21 03:36:26;;;;;;;14.80;12.93;;;21.90;70.90;;;;;;5055257;28;20182;-82
2023/06/21 03:38:52;;;;;;;13.38;11.98;;;21.90;70.90;;;;;;5037528;28;20150;-83
2023/06/21 03:41:18;;;;;;;13.85;12.43;;;21.90;70.80;;;;;;5037780;28;20146;-82
2023/06/21 03:43:44;;;;;;;15.30;13.25;;;21.90;70.80;;;;;;5037398;28;20158;-82
2023/06/21 03:46:11;;;;;;;15.00;13.35;;;22.00;70.70;;;;;;5037552;28;20253;-81
2023/06/21 03:48:37;;;;;;;14.88;12.90;;;21.90;70.70;;;;;;5020805;28;20232;-82
2023/06/21 03:51:04;;;;;;;13.48;12.07;;;22.00;70.60;;;;;;5037722;28;20186;-81
2023/06/21 03:53:30;;;;;;;13.48;12.07;;;22.00;70.50;;;;;;5055115;28;20161;-82
2023/06/21 03:55:56;;;;;;;13.95;12.45;;;22.00;70.50;;;;;;5037053;28;20193;-82
2023/06/21 03:58:22;;;;;;;13.75;12.23;;;22.00;70.50;;;;;;5037644;28;20189;-82
2023/06/21 04:00:48;;;;;;;14.07;12.55;;;22.00;70.40;;;;;;5055211;28;20620;-82
2023/06/21 04:03:14;;;;;;;13.95;12.45;;;22.00;70.30;;;;;;5055279;28;20526;-82
2023/06/21 04:05:40;;;;;;;13.98;12.48;;;22.10;70.30;;;;;;5037028;28;20169;-82
2023/06/21 04:08:06;;;;;;;14.63;13.10;;;22.00;70.30;;;;;;5054715;28;20208;-82
2023/06/21 04:10:33;;;;;;;13.60;12.20;;;22.00;70.20;;;;;;5020849;28;20158;-83
2023/06/21 04:12:59;;;;;;;14.57;12.52;;;22.00;70.30;;;;;;5020448;28;20166;-81
2023/06/21 04:15:26;;;;;;;13.77;12.27;;;22.00;70.30;;;;;;5054692;28;20640;-82
2023/06/21 04:17:52;;;;;;;13.27;11.88;;;22.00;70.30;;;;;;5036628;28;20640;-82
2023/06/21 04:20:18;;;;;;;13.90;12.50;;;22.00;70.30;;;;;;5020761;28;20154;-82
2023/06/21 04:22:45;;;;;;;13.55;12.15;;;22.10;70.30;;;;;;5036667;28;20162;-81
2023/06/21 04:25:11;;;;;;;14.00;12.55;;;22.00;70.20;;;;;;5054759;28;20150;-82
2023/06/21 04:27:40;;;;;;;13.55;12.05;;;22.10;70.10;;;;;;5036743;28;20188;-81
2023/06/21 04:30:09;;;;;;;14.27;12.73;;;22.10;70.20;;;;;;5020412;28;20253;-82
2023/06/21 04:32:35;;;;;;;13.10;11.70;;;22.10;70.20;;;;;;5054608;28;20210;-82
2023/06/21 04:35:01;;;;;;;13.35;11.82;;;22.00;70.20;;;;;;5036431;28;20605;-83
2023/06/21 04:37:28;;;;;;;14.38;12.32;;;22.10;70.20;;;;;;5036270;28;20170;-82
2023/06/21 04:39:55;;;;;;;13.80;12.32;;;22.20;70.00;;;;;;5054555;28;20162;-82
2023/06/21 04:42:21;;;;;;;13.77;12.27;;;22.10;70.10;;;;;;5036817;28;20154;-82
2023/06/21 04:44:49;;;;;;;13.75;12.35;;;22.10;70.00;;;;;;5036205;28;20190;-81
2023/06/21 04:47:16;;;;;;;13.60;12.20;;;22.10;69.90;;;;;;5036122;28;20255;-81
2023/06/21 04:49:43;;;;;;;14.10;12.60;;;22.10;69.90;;;;;;5036393;28;20174;-83
2023/06/21 04:52:09;;;;;;;14.10;12.55;;;22.10;69.80;;;;;;5036144;28;20170;-82
2023/06/21 04:54:36;;;;;;;13.23;11.82;;;22.20;69.80;;;;;;5036312;28;20169;-82
2023/06/21 04:57:04;;;;;;;13.60;12.15;;;22.20;69.80;;;;;;5036112;28;20205;-82
2023/06/21 04:59:30;;;;;;;15.40;12.70;;;22.20;69.70;;;;;;5035956;28;20166;-82
2023/06/21 05:01:56;;;;;;;13.57;12.10;;;22.20;69.70;;;;;;5036258;28;20158;-82
2023/06/21 05:04:22;;;;;;;13.23;11.82;;;22.20;69.60;;;;;;5036012;28;20569;-82
2023/06/21 05:06:47;;;;;;;14.35;12.80;;;22.20;69.60;;;;;;5053855;28;20182;-83
2023/06/21 05:09:13;;;;;;;13.38;11.98;;;22.20;69.50;;;;;;5053729;28;20170;-82
2023/06/21 05:11:39;;;;;;;13.10;11.80;;;22.20;69.30;;;;;;5035907;28;20165;-83
2023/06/21 05:14:05;;;;;;;13.35;11.95;;;22.20;69.30;;;;;;5035810;28;20648;-82
2023/06/21 05:16:31;;;;;;;13.27;11.88;;;22.30;69.10;;;;;;5053398;28;20643;-81
2023/06/21 05:18:56;;;;;;;13.35;11.68;;;22.30;69.00;;;;;;5035209;28;20176;-84
2023/06/21 05:21:22;;;;;;;12.88;11.57;;;22.30;69.00;;;;;;5036002;28;20216;-81
2023/06/21 05:23:48;;;;;;;12.40;11.10;;;22.30;68.90;;;;;;5035646;28;20166;-81
2023/06/21 05:26:14;;;;;;;13.13;11.82;;;22.30;68.90;;;;;;5035552;28;20162;-81
2023/06/21 05:28:39;;;;;;;13.35;11.40;;;22.30;68.90;;;;;;5053255;28;20158;-82
2023/06/21 05:31:05;;;;;;;12.90;11.48;;;22.30;69.00;;;;;;5053382;28;20154;-82
2023/06/21 05:33:32;;;;;;;13.00;11.57;;;22.30;69.00;;;;;;5035644;28;20169;-81
2023/06/21 05:35:57;;;;;;;12.63;11.32;;;22.30;69.00;;;;;;5035633;28;20675;-82
2023/06/21 05:38:24;;;;;;;12.95;11.65;;;22.20;69.20;;;;;;5035691;28;20162;-82
2023/06/21 05:40:49;;;;;;;12.93;11.52;;;22.10;69.50;;;;;;5019055;28;20163;-81
2023/06/21 05:43:15;;;;;;;12.98;11.52;;;22.00;69.60;;;;;;5035576;28;20153;-84
2023/06/21 05:45:41;;;;;;;11.75;10.18;;;22.00;69.40;;;;;;5053257;28;20180;-83
2023/06/21 05:48:06;;;;;;;12.45;11.15;;;22.00;69.40;;;;;;5035507;28;20259;-81
2023/06/21 05:50:33;;;;;;;11.68;10.48;;;22.00;69.40;;;;;;5053303;28;20307;-81
2023/06/21 05:52:59;;;;;;;11.50;10.30;;;22.00;69.50;;;;;;5035433;28;20263;-82
2023/06/21 05:55:25;;;;;;;11.73;10.52;;;22.10;69.10;;;;;;5035430;28;20320;-82
2023/06/21 05:57:51;;;;;;;11.52;10.32;;;22.10;68.60;;;;;;5035422;28;20647;-81
2023/06/21 06:00:17;;;;;;;11.55;10.35;;;22.20;68.50;;;;;;5035313;28;20233;-82
2023/06/21 06:02:44;;;;;;;12.02;10.70;;;22.20;68.30;;;;;;5035319;28;20158;-82
2023/06/21 06:05:10;;;;;;;12.38;11.07;;;22.20;68.10;;;;;;5052877;28;20147;-83
2023/06/21 06:07:36;;;;;;;10.40;9.38;;;22.30;68.10;;;;;;5052919;28;20522;-83
2023/06/21 06:10:02;;;;;;;11.45;10.27;;;22.20;68.10;;;;;;5019643;28;20162;-82
2023/06/21 06:12:29;;;;;;;10.75;9.65;;;22.30;68.30;;;;;;5053107;28;20595;-83
2023/06/21 06:14:54;;;;;;;11.32;10.23;;;22.30;68.10;;;;;;5034446;28;20186;-82
2023/06/21 06:17:21;;;;;;;11.10;10.00;;;22.30;68.10;;;;;;5018929;28;20208;-81
2023/06/21 06:19:46;;;;;;;11.75;10.50;;;22.30;68.30;;;;;;5035014;28;20154;-83
2023/06/21 06:22:12;;;;;;;11.10;10.00;;;22.20;68.40;;;;;;5035287;28;20162;-81
2023/06/21 06:24:38;;;;;;;10.90;9.75;;;22.20;68.50;;;;;;5018548;28;20158;-82
2023/06/21 06:27:04;;;;;;;11.07;9.90;;;22.20;68.70;;;;;;5034966;28;20169;-81
2023/06/21 06:29:30;;;;;;;10.57;9.50;;;22.20;68.50;;;;;;5034980;28;20154;-82
2023/06/21 06:31:56;;;;;;;10.32;9.32;;;22.30;68.10;;;;;;5055690;28;20181;-83
2023/06/21 06:34:22;;;;;;;11.23;10.07;;;22.20;68.00;;;;;;5023117;28;20601;-83
2023/06/21 06:36:48;;;;;;;9.20;8.30;;;22.30;67.90;;;;;;5056406;28;20559;-80
2023/06/21 06:39:14;;;;;;;10.65;9.55;;;22.30;68.00;;;;;;5038963;28;20206;-84
2023/06/21 06:41:39;;;;;;;10.10;9.10;;;22.20;67.90;;;;;;5039343;28;20159;-85
2023/06/21 06:44:05;;;;;;;9.68;8.77;;;22.20;68.00;;;;;;5022287;28;20686;-87
2023/06/21 06:46:31;;;;;;;10.25;9.23;;;22.30;68.10;;;;;;5019808;28;20671;-84
2023/06/21 06:49:25;;;;;;;10.73;9.32;;;22.30;67.80;;;;;;5051926;28;20235;-81
2023/06/21 06:51:51;;;;;;;9.25;8.35;;;22.30;67.80;;;;;;5045982;28;20238;-82
2023/06/21 06:54:21;;;;;;;9.55;8.55;;;22.40;67.20;;;;;;5074550;28;20157;-80
2023/06/21 06:56:51;;;;;;;9.07;8.18;;;22.40;66.90;;;;;;5006704;28;20205;-82
2023/06/21 06:59:20;;;;;;;10.02;9.00;;;22.50;66.60;;;;;;5006361;28;20544;-82
2023/06/21 07:01:50;;;;;;;9.43;8.48;;;22.40;66.50;;;;;;5024452;28;20185;-81
2023/06/21 07:04:19;;;;;;;10.38;9.38;;;22.40;66.70;;;;;;5008451;28;20173;-81
2023/06/21 07:06:48;;;;;;;9.95;8.95;;;22.50;66.80;;;;;;5007898;28;20193;-81
2023/06/21 07:09:20;;;;;;;10.73;9.63;;;22.50;66.60;;;;;;5007880;28;20239;-81
2023/06/21 07:11:49;;;;;;;10.05;9.05;;;22.40;66.80;;;;;;5025567;28;20574;-81
2023/06/21 07:14:15;;;;;;;9.93;8.93;;;22.40;66.80;;;;;;5007806;28;20582;-80
2023/06/21 07:16:43;;;;;;;9.88;8.88;;;22.50;66.60;;;;;;5040990;28;20197;-80
2023/06/21 07:19:09;;;;;;;10.15;9.15;;;22.50;66.60;;;;;;5041450;28;20304;-80
2023/06/21 07:21:34;;;;;;;9.80;8.90;;;22.50;66.30;;;;;;5024626;28;20193;-80
2023/06/21 07:24:00;;;;;;;9.77;8.88;;;22.40;66.50;;;;;;5041004;28;20154;-81
2023/06/21 07:26:26;;;;;;;9.00;8.10;;;22.40;66.70;;;;;;5041530;28;20164;-81
2023/06/21 07:28:51;;;;;;;10.18;9.07;;;22.40;66.70;;;;;;5075331;28;20161;-80
2023/06/21 07:31:17;;;;;;;9.40;8.50;;;22.40;66.80;;;;;;5057628;28;20173;-80
2023/06/21 07:33:43;;;;;;;9.63;8.73;;;22.40;66.70;;;;;;5057704;28;20153;-81
2023/06/21 07:36:09;;;;;;;9.77;8.77;;;22.40;66.60;;;;;;5040898;28;20257;-81
2023/06/21 07:38:34;;;;;;;8.75;7.95;;;22.50;66.40;;;;;;5057382;28;20523;-82
2023/06/21 07:41:00;;;;;;;9.50;8.60;;;22.50;66.10;;;;;;5075002;28;20160;-81
2023/06/21 07:43:25;;;;;;;9.77;8.77;;;22.50;65.80;;;;;;5057427;28;20169;-81
2023/06/21 07:45:51;;;;;;;9.77;8.88;;;22.50;65.70;;;;;;5040508;28;20512;-81
2023/06/21 07:48:17;;;;;;;9.48;8.57;;;22.50;65.80;;;;;;5057376;28;20302;-81
2023/06/21 07:50:43;;;;;;;8.85;8.05;;;22.50;65.80;;;;;;5075216;28;20207;-82
2023/06/21 07:53:10;;;;;;;9.07;8.18;;;22.60;65.60;;;;;;5055994;28;20269;-81
2023/06/21 07:55:37;;;;;;;9.32;8.38;;;22.60;65.50;;;;;;5005117;28;20213;-81
2023/06/21 07:58:03;;;;;;;10.15;9.15;;;22.60;65.40;;;;;;5005218;28;20232;-80
2023/06/21 08:00:28;;;;;;;10.32;8.63;;;22.60;65.20;;;;;;5040174;28;20169;-81
2023/06/21 08:02:55;;;;;;;10.35;8.98;;;22.60;65.30;;;;;;5024683;28;20181;-81
2023/06/21 08:05:22;;;;;;;9.25;8.35;;;22.60;65.20;;;;;;5041245;28;20204;-80
2023/06/21 08:07:48;;;;;;;12.02;9.60;;;22.60;65.00;;;;;;5074885;28;20158;-80
2023/06/21 08:10:14;;;;;;;10.07;9.10;;;22.70;65.00;;;;;;5057277;28;20162;-81
2023/06/21 08:12:40;;;;;;;10.18;8.93;;;22.70;65.00;;;;;;5057553;28;20236;-81
2023/06/21 08:15:06;;;;;;;9.70;8.80;;;22.70;64.90;;;;;;5056410;28;20196;-81
2023/06/21 08:17:32;;;;;;;10.20;7.85;;;22.70;65.00;;;;;;5072659;28;20154;-82
2023/06/21 08:19:58;;;;;;;9.75;8.75;;;22.70;64.90;;;;;;5039183;28;20168;-81
2023/06/21 08:22:25;;;;;;;9.07;8.18;;;22.80;64.60;;;;;;5073674;28;20161;-81
2023/06/21 08:24:51;;;;;;;8.40;7.60;;;22.70;64.60;;;;;;5055906;28;20173;-84
2023/06/21 08:27:17;;;;;;;8.90;8.10;;;22.80;64.40;;;;;;5055503;28;20532;-81
2023/06/21 08:29:44;;;;;;;9.45;8.50;;;22.80;64.50;;;;;;5022734;28;20181;-80
2023/06/21 08:32:10;;;;;;;9.63;8.25;;;22.80;64.60;;;;;;5057038;28;20145;-84
2023/06/21 08:34:36;;;;;;;8.20;7.40;;;22.80;64.40;;;;;;5040551;28;20176;-81
2023/06/21 08:37:01;;;;;;;10.82;8.93;;;22.80;64.50;;;;;;5039535;28;20193;-81
2023/06/21 08:42:44;;;;;;;9.73;8.73;;;22.80;64.70;;;;;;4949079;28;20197;-83
2023/06/21 08:45:10;;;;;;;9.40;8.50;;;22.70;64.90;;;;;;4937973;29;20732;-81
2023/06/21 08:47:41;;;;;;;10.18;9.18;;;22.70;65.00;;;;;;4938527;29;20308;-82
2023/06/21 08:50:11;;;;;;;8.88;7.97;;;22.60;65.00;;;;;;4938903;29;20185;-82
2023/06/21 08:52:37;;;;;;;8.98;8.07;;;22.70;64.70;;;;;;4939121;28;20206;-82
2023/06/21 08:55:06;;;;;;;9.07;8.18;;;22.80;64.70;;;;;;4936503;29;20530;-81
2023/06/21 08:57:34;;;;;;;10.07;9.07;;;22.80;64.70;;;;;;4920207;29;20177;-81
2023/06/21 09:00:01;;;;;;;9.20;8.30;;;22.80;64.60;;;;;;4920249;29;20169;-81
2023/06/21 09:02:46;;;;;;;9.07;8.18;;;22.80;64.50;;;;;;4951776;29;20174;-81
2023/06/21 09:05:16;;;;;;;9.25;8.32;;;22.80;64.40;;;;;;4951519;29;20167;-82
2023/06/21 09:07:42;;;;;;;9.98;8.98;;;22.80;64.30;;;;;;4919969;29;20197;-82
2023/06/21 09:10:08;;;;;;;9.35;8.27;;;22.90;64.30;;;;;;4936380;29;20185;-82
2023/06/21 09:12:34;;;;;;;9.07;8.18;;;22.90;64.30;;;;;;4921843;29;20667;-81
2023/06/21 09:15:00;;;;;;;8.93;8.02;;;22.90;64.20;;;;;;4954157;29;20158;-83
2023/06/21 09:17:26;;;;;;;8.07;7.32;;;22.90;64.10;;;;;;4969108;28;20182;-81
2023/06/21 09:19:52;;;;;;;9.60;8.60;;;22.90;64.20;;;;;;4976307;28;20148;-81
2023/06/21 09:22:18;;;;;;;9.02;8.23;;;22.80;64.20;;;;;;4992584;28;20160;-81
2023/06/21 09:24:44;;;;;;;9.82;8.82;;;22.70;64.50;;;;;;5015094;28;20183;-82
2023/06/21 09:27:10;;;;;;;9.63;8.00;;;22.70;64.70;;;;;;5033858;28;20163;-82
2023/06/21 09:29:36;;;;;;;9.40;8.50;;;22.70;64.80;;;;;;5035371;28;20250;-83
2023/06/21 09:32:02;;;;;;;8.95;8.05;;;22.70;64.90;;;;;;5016821;28;20570;-81
2023/06/21 09:34:28;;;;;;;8.93;8.02;;;22.70;65.00;;;;;;5000762;28;20201;-82
2023/06/21 09:36:54;;;;;;;8.63;7.82;;;22.70;65.10;;;;;;5034096;28;20610;-81
2023/06/21 09:39:19;;;;;;;8.73;7.93;;;22.70;65.10;;;;;;5033778;28;20233;-81
2023/06/21 09:41:45;;;;;;;9.48;8.48;;;22.70;65.10;;;;;;5033661;28;20154;-80
2023/06/21 09:44:11;;;;;;;9.88;8.88;;;22.70;65.10;;;;;;5015831;28;20174;-82
2023/06/21 09:46:36;;;;;;;8.85;8.05;;;22.70;65.20;;;;;;5033530;28;20241;-81
2023/06/21 09:49:07;;;;;;;9.18;8.27;;;22.70;65.40;;;;;;5016116;28;20218;-81
2023/06/21 09:51:32;;;;;;;9.65;8.68;;;22.70;65.30;;;;;;5016489;28;20155;-81
2023/06/21 09:53:59;;;;;;;9.57;8.68;;;22.70;65.20;;;;;;5016756;28;20212;-85
2023/06/21 09:56:24;;;;;;;9.73;8.77;;;22.70;65.30;;;;;;5034608;28;20195;-80
2023/06/21 09:58:52;;;;;;;8.70;7.80;;;22.70;66.30;;;;;;5016365;28;20147;-81
2023/06/21 10:01:18;;;;;;;9.30;8.40;;;22.60;65.40;;;;;;4999661;28;20170;-81
2023/06/21 10:03:45;;;;;;;9.05;8.15;;;22.70;65.60;;;;;;5015827;28;20155;-81
2023/06/21 10:06:16;;;;;;;9.45;8.55;;;22.70;65.50;;;;;;5003183;28;20259;-81
2023/06/21 10:08:42;;;;;;;9.18;8.27;;;22.70;65.60;;;;;;5037495;28;20617;-82
2023/06/21 10:11:09;;;;;;;8.90;8.10;;;22.70;65.60;;;;;;5019993;28;20197;-82
2023/06/21 10:13:37;;;;;;;9.90;8.90;;;22.70;65.60;;;;;;5020100;28;20317;-82
2023/06/21 10:16:03;;;;;;;8.90;8.00;;;22.70;65.60;;;;;;5020727;28;20193;-82
2023/06/21 10:18:29;;;;;;;9.77;8.77;;;22.70;65.80;;;;;;5004318;28;20167;-82
2023/06/21 10:21:04;;;;;;;8.95;8.13;;;22.70;65.80;;;;;;5020432;28;20623;-82
2023/06/21 10:23:32;;;;;;;9.32;8.32;;;22.80;65.60;;;;;;5003372;28;20163;-82
2023/06/21 10:26:01;;;;;;;8.93;8.02;;;22.80;65.70;;;;;;5003408;28;20217;-81
2023/06/21 10:28:28;;;;;;;9.35;8.45;;;22.80;65.60;;;;;;5018701;28;20158;-81
2023/06/21 10:30:56;;;;;;;9.13;8.23;;;22.80;65.60;;;;;;5004388;28;20178;-82
2023/06/21 10:33:22;;;;;;;10.07;9.07;;;22.80;65.80;;;;;;5009949;28;20210;-81
2023/06/21 10:35:48;;;;;;;9.43;8.52;;;22.80;65.80;;;;;;5041515;28;20197;-81
2023/06/21 10:38:37;;;;;;;9.60;8.70;;;22.80;65.90;;;;;;5038542;28;20158;-81
2023/06/21 10:41:04;;;;;;;9.13;8.23;;;22.80;65.70;;;;;;5056958;28;20621;-82
2023/06/21 10:43:31;;;;;;;9.05;8.15;;;22.90;65.60;;;;;;5022364;28;20620;-81
2023/06/21 10:45:58;;;;;;;8.98;8.18;;;22.90;65.50;;;;;;5022258;28;20639;-81
2023/06/21 10:48:26;;;;;;;9.75;8.75;;;22.90;65.50;;;;;;5023369;28;20252;-82
2023/06/21 10:50:52;;;;;;;9.43;8.52;;;22.90;65.90;;;;;;5040930;28;20601;-81
2023/06/21 10:53:39;;;;;;;9.30;8.35;;;22.90;65.80;;;;;;5040481;28;20185;-83
2023/06/21 10:56:05;;;;;;;9.57;8.50;;;23.00;65.40;;;;;;5057414;28;20645;-80
2023/06/21 10:58:35;;;;;;;9.90;8.32;;;22.90;65.50;;;;;;5039687;28;20150;-80
2023/06/21 11:01:01;;;;;;;9.23;8.30;;;23.00;65.40;;;;;;5038451;28;20232;-80
2023/06/21 11:03:26;;;;;;;10.30;8.80;;;23.00;65.60;;;;;;5022975;28;20154;-81
2023/06/21 11:05:55;;;;;;;9.70;7.60;;;23.00;65.50;;;;;;5039621;28;20173;-80
2023/06/21 11:08:31;;;;;;;10.20;8.60;;;23.10;65.60;;;;;;5056734;28;20170;-81
2023/06/21 11:10:57;;;;;;;9.30;8.38;;;23.00;65.70;;;;;;5021535;28;20181;-81
2023/06/21 11:13:37;;;;;;;8.77;7.88;;;23.00;65.60;;;;;;5023097;28;20181;-81
2023/06/21 11:16:11;;;;;;;9.68;8.68;;;23.10;65.80;;;;;;5038708;28;20182;-81
2023/06/21 11:18:40;;;;;;;10.55;8.70;;;23.10;65.70;;;;;;5039743;28;20222;-82
2023/06/21 11:21:40;;;;;;;13.82;9.15;;;23.10;65.60;;;;;;5040436;28;20184;-81
2023/06/21 11:24:16;;;;;;;10.02;8.15;;;23.00;65.60;;;;;;5021161;28;20516;-81
2023/06/21 11:27:02;;;;;;;9.90;8.75;;;23.10;65.80;;;;;;5022582;28;20659;-81
2023/06/21 11:29:54;;;;;;;10.23;8.65;;;23.10;66.10;;;;;;5037438;28;20185;-82
2023/06/21 11:32:26;;;;;;;9.23;8.30;;;23.10;65.90;;;;;;5005946;28;20186;-82
2023/06/21 11:34:56;;;;;;;11.35;8.50;;;23.00;65.90;;;;;;5038376;28;20165;-82
2023/06/21 11:37:47;;;;;;;11.35;8.63;;;23.00;65.80;;;;;;5038050;28;20228;-80
2023/06/21 11:40:15;;;;;;;11.18;9.10;;;23.00;65.90;;;;;;5038941;28;20186;-80
2023/06/21 11:42:44;;;;;;;11.95;8.77;;;23.00;66.00;;;;;;5037871;28;20177;-82
2023/06/21 11:45:19;;;;;;;9.95;8.55;;;23.00;66.30;;;;;;5037822;28;20174;-80
2023/06/21 11:48:08;;;;;;;10.05;9.00;;;23.00;66.30;;;;;;5038689;28;20232;-80
2023/06/21 11:50:36;;;;;;;9.50;8.38;;;23.00;66.00;;;;;;5038245;28;20193;-81
2023/06/21 11:53:26;;;;;;;10.48;7.90;;;23.00;65.90;;;;;;5056220;28;20269;-83
2023/06/21 11:55:55;;;;;;;9.57;8.43;;;23.00;65.90;;;;;;5038128;28;20193;-80
2023/06/21 11:58:21;;;;;;;9.25;8.35;;;23.00;65.80;;;;;;5038460;28;20150;-81
2023/06/21 12:00:47;;;;;;;9.32;8.32;;;23.00;65.80;;;;;;5039351;28;20158;-80
2023/06/21 12:03:13;;;;;;;10.88;8.98;;;23.00;65.60;;;;;;5039187;28;20166;-82
2023/06/21 12:05:44;;;;;;;10.00;9.00;;;23.00;65.70;;;;;;5039498;28;20253;-82
2023/06/21 12:08:09;;;;;;;10.55;8.77;;;23.10;65.80;;;;;;5021122;28;20232;-82
2023/06/21 12:10:35;;;;;;;9.70;8.23;;;23.10;65.80;;;;;;5020410;28;20505;-82
2023/06/21 12:13:11;;;;;;;11.15;8.60;;;23.10;65.80;;;;;;5020712;28;20177;-82
2023/06/21 12:15:37;;;;;;;10.73;8.25;;;23.10;65.90;;;;;;5020976;28;20513;-81
2023/06/21 12:18:08;;;;;;;11.73;9.02;;;23.10;65.80;;;;;;5021340;28;20194;-81
2023/06/21 12:20:35;;;;;;;14.13;8.98;;;23.10;65.70;;;;;;5037509;28;20165;-81
2023/06/21 12:23:01;;;;;;;13.85;8.85;;;23.10;65.60;;;;;;5021592;28;20623;-83
2023/06/21 12:25:27;;;;;;;10.77;8.65;;;23.00;65.50;;;;;;5037184;28;20261;-81
2023/06/21 12:27:55;;;;;;;10.55;8.80;;;23.10;65.40;;;;;;5020016;28;20555;-81
2023/06/21 12:30:21;;;;;;;11.32;8.35;;;23.10;65.50;;;;;;5036225;28;20151;-81
2023/06/21 12:32:48;;;;;;;10.15;8.93;;;23.20;65.30;;;;;;5036604;28;20524;-81
2023/06/21 12:35:16;;;;;;;10.30;8.98;;;23.20;65.20;;;;;;5020496;28;20532;-81
2023/06/21 12:37:42;;;;;;;10.27;9.18;;;23.20;65.30;;;;;;5036928;28;20237;-82
2023/06/21 12:40:08;;;;;;;11.80;9.48;;;23.20;65.00;;;;;;5036614;28;20619;-81
2023/06/21 12:42:33;;;;;;;10.40;8.75;;;23.20;65.10;;;;;;5054734;28;20153;-81